Search for airport 
image banner adimage banner adimage banner ad
image banner ad

0PN0 - Fletcher

Located in Sheakeyville, United States

ICAO - 0PN0, IATA -

Data provided by Airmate  

General information

Coordinates: N41°26'37" W80°9'14"
Elevation is 1335 feet MSL.
Magnetic variation is -08° East
View others Airports in Pennsylvania

Operational data

Special qualification required
Current time UTC:
Current local time:
Weather at : KGKJ - Port Meadville ( 21 km )
METAR: KGKJ 091153Z AUTO 00000KT 10SM OVC110 04/01 A3003 RMK AO2 SLP177 70005 T00440011 10044 20011 56008
View NOTAMs / SUP AIP / TFR affecting this airport [VIEW]
Communications frequencies: [VIEW]

Runways:

RWY identifierQFULength (ft)Width (ft)SurfaceLDA (ft)
042000200GRASS
222000200GRASS

Airport contact information

Address: Sheakeyville United States

Satellite view of 0PN0